createdAt,value
2022-07-30T00:01:52.285Z,15.30
2022-07-30T00:04:19.203Z,15.30
2022-07-30T00:06:45.813Z,15.20
2022-07-30T00:09:12.455Z,15.20
2022-07-30T00:11:39.091Z,15.20
2022-07-30T00:14:05.798Z,15.10
2022-07-30T00:16:32.568Z,15.10
2022-07-30T00:18:59.779Z,15.10
2022-07-30T00:21:35.989Z,15.20
2022-07-30T00:24:04.377Z,15.20
2022-07-30T00:26:31.406Z,15.20
2022-07-30T00:28:58.268Z,15.20
2022-07-30T00:31:24.922Z,15.30
2022-07-30T00:33:51.566Z,15.20
2022-07-30T00:36:18.190Z,15.30
2022-07-30T00:38:44.786Z,15.20
2022-07-30T00:41:11.865Z,15.10
2022-07-30T00:43:39.237Z,15.00
2022-07-30T00:46:06.175Z,15.00
2022-07-30T00:48:32.855Z,15.00
2022-07-30T00:50:59.593Z,15.00
2022-07-30T00:53:26.675Z,15.00
2022-07-30T00:55:53.366Z,15.00
2022-07-30T00:58:20.039Z,15.00
2022-07-30T01:00:46.733Z,15.00
2022-07-30T01:03:13.416Z,15.00
2022-07-30T01:05:40.051Z,15.00
2022-07-30T01:08:06.658Z,15.00
2022-07-30T01:10:33.308Z,15.00
2022-07-30T01:13:01.907Z,15.00
2022-07-30T01:15:28.975Z,14.90
2022-07-30T01:17:59.936Z,14.90
2022-07-30T01:20:31.899Z,14.90
2022-07-30T01:23:14.648Z,14.80
2022-07-30T01:26:04.112Z,14.80
2022-07-30T01:28:37.570Z,14.70
2022-07-30T01:31:05.727Z,14.70
2022-07-30T01:33:34.022Z,14.70
2022-07-30T01:36:01.961Z,14.70
2022-07-30T01:38:31.256Z,14.70
2022-07-30T01:41:03.560Z,14.70
2022-07-30T01:43:31.548Z,14.60
2022-07-30T01:45:59.278Z,14.60
2022-07-30T01:48:27.610Z,14.70
2022-07-30T01:50:56.487Z,14.50
2022-07-30T01:53:26.452Z,14.50
2022-07-30T01:55:55.863Z,14.50
2022-07-30T01:58:27.054Z,14.40
2022-07-30T02:00:56.702Z,14.30
2022-07-30T02:03:23.940Z,14.20
2022-07-30T02:05:58.617Z,14.20
2022-07-30T02:08:45.475Z,14.20
2022-07-30T02:11:15.611Z,14.10
2022-07-30T02:13:51.581Z,14.10
2022-07-30T02:16:27.144Z,14.10
2022-07-30T02:19:09.541Z,14.10
2022-07-30T02:21:39.815Z,14.10
2022-07-30T02:24:22.190Z,14.10
2022-07-30T02:27:01.300Z,14.10
2022-07-30T02:29:29.932Z,14.10
2022-07-30T02:31:58.350Z,14.00
2022-07-30T02:34:25.683Z,14.00
2022-07-30T02:36:54.541Z,14.00
2022-07-30T02:39:21.975Z,14.00
2022-07-30T02:41:50.220Z,14.00
2022-07-30T02:44:20.193Z,13.90
2022-07-30T02:46:49.742Z,13.90
2022-07-30T02:49:18.914Z,13.90
2022-07-30T02:51:49.392Z,13.80
2022-07-30T02:54:19.576Z,13.80
2022-07-30T02:56:49.417Z,13.70
2022-07-30T02:59:19.067Z,13.70
2022-07-30T03:01:47.955Z,13.70
2022-07-30T03:04:15.929Z,13.70
2022-07-30T03:06:45.205Z,13.70
2022-07-30T03:09:12.913Z,13.70
2022-07-30T03:11:44.246Z,13.70
2022-07-30T03:14:11.277Z,13.60
2022-07-30T03:16:38.906Z,13.70
2022-07-30T03:19:09.883Z,13.70
2022-07-30T03:21:38.514Z,13.70
2022-07-30T03:24:07.301Z,13.80
2022-07-30T03:26:36.463Z,13.70
2022-07-30T03:29:03.354Z,13.80
2022-07-30T03:31:36.608Z,13.90
2022-07-30T03:34:06.508Z,13.90
2022-07-30T03:36:34.198Z,14.10
2022-07-30T03:39:02.566Z,14.10
2022-07-30T03:41:30.234Z,14.20
2022-07-30T03:43:57.577Z,14.30
2022-07-30T03:46:25.123Z,14.30
2022-07-30T03:48:53.687Z,14.40
2022-07-30T03:51:21.164Z,14.50
2022-07-30T03:53:48.497Z,14.60
2022-07-30T03:56:15.417Z,14.70
2022-07-30T03:58:42.141Z,14.80
2022-07-30T04:01:08.954Z,14.90
2022-07-30T04:03:35.644Z,14.90
2022-07-30T04:06:02.388Z,15.00
2022-07-30T04:08:29.137Z,15.00
2022-07-30T04:10:56.055Z,15.00
2022-07-30T04:13:22.838Z,15.00
2022-07-30T04:16:39.997Z,15.10
2022-07-30T04:19:03.697Z,15.10
2022-07-30T04:21:32.923Z,15.10
2022-07-30T04:24:04.558Z,15.10
2022-07-30T04:26:34.814Z,15.00
2022-07-30T04:29:03.064Z,15.10
2022-07-30T04:31:35.213Z,15.10
2022-07-30T04:34:07.957Z,15.20
2022-07-30T04:36:35.670Z,15.20
2022-07-30T04:39:02.309Z,15.20
2022-07-30T04:41:28.961Z,15.30
2022-07-30T04:44:15.787Z,15.40
2022-07-30T04:46:42.442Z,15.50
2022-07-30T04:49:11.411Z,15.50
2022-07-30T04:51:39.104Z,15.60
2022-07-30T04:54:08.926Z,15.70
2022-07-30T04:56:50.554Z,15.70
2022-07-30T04:59:23.481Z,15.70
2022-07-30T05:01:51.085Z,15.80
2022-07-30T05:04:18.796Z,15.80
2022-07-30T05:06:46.311Z,15.90
2022-07-30T05:09:15.152Z,15.90
2022-07-30T05:11:41.781Z,15.90
2022-07-30T05:14:08.358Z,16.00
2022-07-30T05:16:35.918Z,16.00
2022-07-30T05:19:07.540Z,16.00
2022-07-30T05:21:34.952Z,16.20
2022-07-30T05:24:01.643Z,16.20
2022-07-30T05:26:28.279Z,16.30
2022-07-30T05:28:56.819Z,16.30
2022-07-30T05:31:24.462Z,16.40
2022-07-30T05:33:51.824Z,16.40
2022-07-30T05:36:22.062Z,16.40
2022-07-30T05:38:49.161Z,16.30
2022-07-30T05:41:21.386Z,16.30
2022-07-30T05:43:59.152Z,16.30
2022-07-30T05:46:25.953Z,16.50
2022-07-30T05:48:52.717Z,16.50
2022-07-30T05:51:20.698Z,16.40
2022-07-30T05:53:47.499Z,16.50
2022-07-30T05:56:14.216Z,16.50
2022-07-30T05:58:40.861Z,16.60
2022-07-30T06:01:07.836Z,16.70
2022-07-30T06:03:34.906Z,16.70
2022-07-30T06:06:04.618Z,16.70
2022-07-30T06:08:31.397Z,16.80
2022-07-30T06:10:58.011Z,16.80
2022-07-30T06:13:24.933Z,16.90
2022-07-30T06:15:51.649Z,16.90
2022-07-30T06:18:18.329Z,16.90
2022-07-30T06:20:45.286Z,17.10
2022-07-30T06:23:12.208Z,17.10
2022-07-30T06:25:38.965Z,17.10
2022-07-30T06:28:27.730Z,17.10
2022-07-30T06:30:54.254Z,17.10
2022-07-30T06:33:20.888Z,17.50
2022-07-30T06:35:48.837Z,17.50
2022-07-30T06:38:15.543Z,17.60
2022-07-30T06:40:42.208Z,17.90
2022-07-30T06:43:09.182Z,18.00
2022-07-30T06:45:35.908Z,17.90
2022-07-30T06:48:02.536Z,18.00
2022-07-30T06:50:29.430Z,18.10
2022-07-30T06:52:56.105Z,18.30
2022-07-30T06:55:22.720Z,18.30
2022-07-30T06:57:49.332Z,18.60
2022-07-30T07:00:16.151Z,18.50
2022-07-30T07:02:43.319Z,18.80
2022-07-30T07:05:10.107Z,18.90
2022-07-30T07:07:42.353Z,18.70
2022-07-30T07:10:11.480Z,19.10
2022-07-30T07:12:38.202Z,18.90
2022-07-30T07:15:05.485Z,18.90
2022-07-30T07:17:32.099Z,18.80
2022-07-30T07:20:00.371Z,19.00
2022-07-30T07:22:29.148Z,19.10
2022-07-30T07:24:56.028Z,19.50
2022-07-30T07:27:22.716Z,19.60
2022-07-30T07:30:04.994Z,19.50
2022-07-30T07:32:33.726Z,19.70
2022-07-30T07:35:00.588Z,19.80
2022-07-30T07:37:27.656Z,20.00
2022-07-30T07:39:54.374Z,20.00
2022-07-30T07:42:20.999Z,19.80
2022-07-30T07:44:47.700Z,19.80
2022-07-30T07:47:14.638Z,19.90
2022-07-30T07:49:41.338Z,19.70
2022-07-30T07:52:07.983Z,19.60
2022-07-30T07:54:34.646Z,19.60
2022-07-30T07:57:02.286Z,19.70
2022-07-30T07:59:35.991Z,19.80
2022-07-30T08:02:08.097Z,20.00
2022-07-30T08:04:35.714Z,20.40
2022-07-30T08:07:03.131Z,21.00
2022-07-30T08:09:40.733Z,21.70
2022-07-30T08:12:14.116Z,22.00
2022-07-30T08:14:40.782Z,21.30
2022-07-30T08:17:08.030Z,21.50
2022-07-30T08:19:35.174Z,22.10
2022-07-30T08:22:01.758Z,22.40
2022-07-30T08:24:28.354Z,22.70
2022-07-30T08:26:55.004Z,22.70
2022-07-30T08:29:21.593Z,23.00
2022-07-30T08:31:48.309Z,22.90
2022-07-30T08:34:15.096Z,22.60
2022-07-30T08:36:42.135Z,22.40
2022-07-30T08:39:09.186Z,22.80
2022-07-30T08:41:38.514Z,22.60
2022-07-30T08:44:12.893Z,22.80
2022-07-30T08:46:47.119Z,23.10
2022-07-30T08:49:15.711Z,23.50
2022-07-30T08:51:42.608Z,23.60
2022-07-30T08:54:09.937Z,24.30
2022-07-30T08:56:37.124Z,23.90
2022-07-30T08:59:04.355Z,23.60
2022-07-30T09:01:31.205Z,23.50
2022-07-30T09:03:58.491Z,23.40
2022-07-30T09:06:25.245Z,24.10
2022-07-30T09:08:51.945Z,24.30
2022-07-30T09:11:18.810Z,24.40
2022-07-30T09:13:45.456Z,24.80
2022-07-30T09:16:24.016Z,25.50
2022-07-30T09:18:52.496Z,25.70
2022-07-30T09:21:23.294Z,25.50
2022-07-30T09:24:00.109Z,24.30
2022-07-30T09:26:27.377Z,24.30
2022-07-30T09:28:54.196Z,24.80
2022-07-30T09:31:22.894Z,25.20
2022-07-30T09:33:49.619Z,25.80
2022-07-30T09:36:18.187Z,26.40
2022-07-30T09:38:53.483Z,25.80
2022-07-30T09:41:39.374Z,25.50
2022-07-30T09:44:07.165Z,25.50
2022-07-30T09:46:45.553Z,25.50
2022-07-30T09:49:20.356Z,25.80
2022-07-30T09:51:56.328Z,25.40
2022-07-30T09:54:42.982Z,26.10
2022-07-30T09:57:25.836Z,26.20
2022-07-30T09:59:55.863Z,26.40
2022-07-30T10:02:32.172Z,27.00
2022-07-30T10:05:14.266Z,27.40
2022-07-30T10:07:58.137Z,28.20
2022-07-30T10:10:27.534Z,27.80
2022-07-30T10:12:58.309Z,28.10
2022-07-30T10:15:28.326Z,27.70
2022-07-30T10:17:56.068Z,27.90
2022-07-30T10:20:25.384Z,28.00
2022-07-30T10:22:52.665Z,27.80
2022-07-30T10:25:22.965Z,28.10
2022-07-30T10:27:50.643Z,28.00
2022-07-30T10:30:27.846Z,28.00
2022-07-30T10:32:58.460Z,28.20
2022-07-30T10:35:34.492Z,28.10
2022-07-30T10:38:09.303Z,28.00
2022-07-30T10:40:47.588Z,28.50
2022-07-30T10:43:51.477Z,28.50
2022-07-30T10:46:54.699Z,28.40
2022-07-30T10:49:25.917Z,28.40
2022-07-30T10:51:56.417Z,28.80
2022-07-30T10:54:44.361Z,29.40
2022-07-30T10:57:31.673Z,29.40
2022-07-30T11:00:04.093Z,29.60
2022-07-30T11:02:35.062Z,29.40
2022-07-30T11:05:17.700Z,30.10
2022-07-30T11:07:47.419Z,29.70
2022-07-30T11:10:37.637Z,29.70
2022-07-30T11:13:08.090Z,29.40
2022-07-30T11:15:56.673Z,29.50
2022-07-30T11:18:25.064Z,29.90
2022-07-30T11:21:15.637Z,30.10
2022-07-30T11:23:43.603Z,29.80
2022-07-30T11:26:14.253Z,29.80
2022-07-30T11:28:46.072Z,30.10
2022-07-30T11:31:55.638Z,30.20
2022-07-30T11:34:24.111Z,30.20
2022-07-30T11:37:31.865Z,30.10
2022-07-30T11:40:02.264Z,31.00
2022-07-30T11:42:34.839Z,31.00
2022-07-30T11:45:16.874Z,30.70
2022-07-30T11:47:48.374Z,30.60
2022-07-30T11:50:27.250Z,30.70
2022-07-30T11:52:59.812Z,30.80
2022-07-30T11:55:42.385Z,31.20
2022-07-30T11:58:11.754Z,31.20
2022-07-30T12:00:47.787Z,31.50
2022-07-30T12:03:16.402Z,31.70
2022-07-30T12:05:43.923Z,31.70
2022-07-30T12:08:32.794Z,32.00
2022-07-30T12:11:01.121Z,31.60
2022-07-30T12:13:43.502Z,30.80
2022-07-30T12:16:13.775Z,30.60
2022-07-30T12:18:40.417Z,30.50
2022-07-30T12:21:09.216Z,30.40
2022-07-30T12:23:36.185Z,30.90
2022-07-30T12:26:03.269Z,31.40
2022-07-30T12:28:35.750Z,32.00
2022-07-30T12:31:04.266Z,32.10
2022-07-30T12:33:31.385Z,32.40
2022-07-30T12:35:59.994Z,32.40
2022-07-30T12:38:28.952Z,32.40
2022-07-30T12:41:00.471Z,32.40
2022-07-30T12:43:46.698Z,32.70
2022-07-30T12:46:19.186Z,33.60
2022-07-30T12:48:49.824Z,34.40
2022-07-30T12:51:16.901Z,33.80
2022-07-30T12:53:43.886Z,33.70
2022-07-30T12:56:22.901Z,33.60
2022-07-30T12:58:49.816Z,34.50
2022-07-30T13:01:17.949Z,35.20
2022-07-30T13:03:45.495Z,34.20
2022-07-30T13:06:25.458Z,33.10
2022-07-30T13:08:59.563Z,32.90
2022-07-30T13:11:38.437Z,33.30
2022-07-30T13:14:05.368Z,33.60
2022-07-30T13:16:33.628Z,33.30
2022-07-30T13:19:00.926Z,32.90
2022-07-30T13:21:27.566Z,32.40
2022-07-30T13:23:54.246Z,31.90
2022-07-30T13:26:20.900Z,31.70
2022-07-30T13:28:47.491Z,32.00
2022-07-30T13:31:14.121Z,32.00
2022-07-30T13:33:40.871Z,32.50
2022-07-30T13:36:08.114Z,32.20
2022-07-30T13:38:34.799Z,32.30
2022-07-30T13:41:02.847Z,33.10
2022-07-30T13:43:30.039Z,33.10
2022-07-30T13:46:00.455Z,33.60
2022-07-30T13:48:27.301Z,33.40
2022-07-30T13:50:53.906Z,33.70
2022-07-30T13:53:20.698Z,34.10
2022-07-30T13:55:47.375Z,34.40
2022-07-30T13:58:14.418Z,34.60
2022-07-30T14:00:41.341Z,35.00
2022-07-30T14:03:09.552Z,35.60
2022-07-30T14:05:42.132Z,36.30
2022-07-30T14:08:10.668Z,36.40
2022-07-30T14:10:38.218Z,35.50
2022-07-30T14:13:06.375Z,34.90
2022-07-30T14:15:33.248Z,34.60
2022-07-30T14:18:00.737Z,35.20
2022-07-30T14:20:29.234Z,34.40
2022-07-30T14:22:56.244Z,34.50
2022-07-30T14:25:23.055Z,35.50
2022-07-30T14:27:49.732Z,35.50
2022-07-30T14:30:16.327Z,35.10
2022-07-30T14:32:43.013Z,35.60
2022-07-30T14:35:10.412Z,36.00
2022-07-30T14:37:38.556Z,36.60
2022-07-30T14:40:07.613Z,37.50
2022-07-30T14:42:36.036Z,37.10
2022-07-30T14:45:04.782Z,37.60
2022-07-30T14:47:31.374Z,37.40
2022-07-30T14:49:57.958Z,37.10
2022-07-30T14:52:24.802Z,36.30
2022-07-30T14:54:52.017Z,35.90
2022-07-30T14:57:19.204Z,35.40
2022-07-30T14:59:45.964Z,35.30
2022-07-30T15:02:12.617Z,35.90
2022-07-30T15:04:39.248Z,35.60
2022-07-30T15:07:06.851Z,35.40
2022-07-30T15:09:34.065Z,35.70
2022-07-30T15:12:08.292Z,36.00
2022-07-30T15:14:37.992Z,36.70
2022-07-30T15:17:05.942Z,36.40
2022-07-30T15:19:33.140Z,35.20
2022-07-30T15:22:02.241Z,34.60
2022-07-30T15:24:29.954Z,34.90
2022-07-30T15:26:56.653Z,35.40
2022-07-30T15:29:24.164Z,35.90
2022-07-30T15:31:51.509Z,35.90
2022-07-30T15:34:18.145Z,36.00
2022-07-30T15:36:44.831Z,36.20
2022-07-30T15:39:11.554Z,36.00
2022-07-30T15:41:38.282Z,35.60
2022-07-30T15:44:05.017Z,35.10
2022-07-30T15:46:31.651Z,35.50
2022-07-30T15:48:58.678Z,35.40
2022-07-30T15:51:25.339Z,35.20
2022-07-30T15:53:51.919Z,33.80
2022-07-30T15:56:18.676Z,34.10
2022-07-30T15:58:45.284Z,34.40
2022-07-30T16:01:12.076Z,34.30
2022-07-30T16:03:38.814Z,34.00
2022-07-30T16:06:05.542Z,34.10
2022-07-30T16:08:32.165Z,34.00
2022-07-30T16:10:58.838Z,33.60
2022-07-30T16:13:25.437Z,33.40
2022-07-30T16:15:52.034Z,33.00
2022-07-30T16:18:18.662Z,33.00
2022-07-30T16:20:45.363Z,33.10
2022-07-30T16:23:14.167Z,33.00
2022-07-30T16:25:43.663Z,32.60
2022-07-30T16:28:10.266Z,32.10
2022-07-30T16:30:37.042Z,31.80
2022-07-30T16:33:17.954Z,31.80
2022-07-30T16:35:49.204Z,31.90
2022-07-30T16:38:17.492Z,32.00
2022-07-30T16:40:44.347Z,32.00
2022-07-30T16:43:11.261Z,31.90
2022-07-30T16:45:38.042Z,32.30
2022-07-30T16:48:05.150Z,32.30
2022-07-30T16:50:31.782Z,32.40
2022-07-30T16:52:58.462Z,32.30
2022-07-30T16:55:25.142Z,32.40
2022-07-30T16:57:51.956Z,32.70
2022-07-30T17:00:18.538Z,33.10
2022-07-30T17:02:45.242Z,33.00
2022-07-30T17:05:13.714Z,32.40
2022-07-30T17:07:41.211Z,32.60
2022-07-30T17:10:11.048Z,32.40
2022-07-30T17:12:38.850Z,32.20
2022-07-30T17:15:07.577Z,31.60
2022-07-30T17:17:34.263Z,31.40
2022-07-30T17:20:02.122Z,31.50
2022-07-30T17:22:28.926Z,31.50
2022-07-30T17:24:55.553Z,30.70
2022-07-30T17:27:22.174Z,30.90
2022-07-30T17:29:50.469Z,30.80
2022-07-30T17:32:18.245Z,30.90
2022-07-30T17:34:45.007Z,30.80
2022-07-30T17:37:11.802Z,30.40
2022-07-30T17:40:26.912Z,30.00
2022-07-30T17:42:26.130Z,29.80
2022-07-30T17:44:52.738Z,29.30
2022-07-30T17:47:19.363Z,29.20
2022-07-30T17:49:46.425Z,29.00
2022-07-30T17:52:13.073Z,28.80
2022-07-30T17:54:39.738Z,28.70
2022-07-30T17:57:06.606Z,28.50
2022-07-30T17:59:33.196Z,28.30
2022-07-30T18:02:00.209Z,28.10
2022-07-30T18:04:27.478Z,27.80
2022-07-30T18:06:54.217Z,27.60
2022-07-30T18:09:21.019Z,27.30
2022-07-30T18:11:48.932Z,27.10
2022-07-30T18:14:15.570Z,26.90
2022-07-30T18:16:42.182Z,26.80
2022-07-30T18:19:08.794Z,26.70
2022-07-30T18:21:49.636Z,26.80
2022-07-30T18:24:16.279Z,26.60
2022-07-30T18:26:43.004Z,26.50
2022-07-30T18:29:13.865Z,26.30
2022-07-30T18:31:40.710Z,26.10
2022-07-30T18:34:07.297Z,26.00
2022-07-30T18:36:33.894Z,25.90
2022-07-30T18:39:00.483Z,25.90
2022-07-30T18:41:27.143Z,25.90
2022-07-30T18:43:53.769Z,25.70
2022-07-30T18:46:20.415Z,25.60
2022-07-30T18:48:48.401Z,25.60
2022-07-30T18:51:16.114Z,25.50
2022-07-30T18:53:43.168Z,25.40
2022-07-30T18:56:09.830Z,25.30
2022-07-30T18:58:38.266Z,25.20
2022-07-30T19:01:05.250Z,25.10
2022-07-30T19:03:32.098Z,25.00
2022-07-30T19:05:58.733Z,24.90
2022-07-30T19:08:25.418Z,24.80
2022-07-30T19:10:52.486Z,24.70
2022-07-30T19:13:19.173Z,24.60
2022-07-30T19:15:45.837Z,24.50
2022-07-30T19:18:12.437Z,24.50
2022-07-30T19:20:39.042Z,24.50
2022-07-30T19:23:07.586Z,24.30
2022-07-30T19:25:35.321Z,24.20
2022-07-30T19:28:03.198Z,24.20
2022-07-30T19:30:30.906Z,24.10
2022-07-30T19:33:14.734Z,24.10
2022-07-30T19:35:42.879Z,24.00
2022-07-30T19:38:09.983Z,23.90
2022-07-30T19:40:42.249Z,23.80
2022-07-30T19:43:10.165Z,23.80
2022-07-30T19:45:47.489Z,23.70
2022-07-30T19:48:15.683Z,23.70
2022-07-30T19:50:57.622Z,23.60
2022-07-30T19:53:25.493Z,23.50
2022-07-30T19:55:52.227Z,23.40
2022-07-30T19:58:19.134Z,23.30
2022-07-30T20:00:49.230Z,23.20
2022-07-30T20:03:16.643Z,23.10
2022-07-30T20:05:54.720Z,23.00
2022-07-30T20:08:25.107Z,22.90
2022-07-30T20:10:51.917Z,22.80
2022-07-30T20:13:19.097Z,22.70
2022-07-30T20:15:46.459Z,22.70
2022-07-30T20:18:13.364Z,22.80
2022-07-30T20:20:41.360Z,22.70
2022-07-30T20:23:08.346Z,22.90
2022-07-30T20:25:37.211Z,22.70
2022-07-30T20:28:07.502Z,22.50
2022-07-30T20:30:34.233Z,22.50
2022-07-30T20:33:02.667Z,22.40
2022-07-30T20:35:31.816Z,22.40
2022-07-30T20:38:05.765Z,22.30
2022-07-30T20:40:37.071Z,22.30
2022-07-30T20:43:05.769Z,22.20
2022-07-30T20:48:25.520Z,22.10
2022-07-30T20:50:52.584Z,22.10
2022-07-30T20:53:19.811Z,22.10
2022-07-30T20:55:47.406Z,22.00
2022-07-30T20:58:16.640Z,22.20
2022-07-30T21:00:49.442Z,22.10
2022-07-30T21:03:21.718Z,22.00
2022-07-30T21:05:48.947Z,21.80
2022-07-30T21:08:19.370Z,21.70
2022-07-30T21:10:46.731Z,21.60
2022-07-30T21:13:13.720Z,21.40
2022-07-30T21:15:45.546Z,21.40
2022-07-30T21:18:27.106Z,21.30
2022-07-30T21:20:53.918Z,21.30
2022-07-30T21:23:23.843Z,21.30
2022-07-30T21:26:00.945Z,21.30
2022-07-30T21:28:30.097Z,21.40
2022-07-30T21:31:02.553Z,21.40
2022-07-30T21:33:31.597Z,21.40
2022-07-30T21:35:59.041Z,21.40
2022-07-30T21:38:26.615Z,21.40
2022-07-30T21:40:53.699Z,21.50
2022-07-30T21:43:22.951Z,21.60
2022-07-30T21:45:56.523Z,21.50
2022-07-30T21:48:24.445Z,21.60
2022-07-30T21:50:53.105Z,21.50
2022-07-30T21:53:29.503Z,21.50
2022-07-30T21:56:06.515Z,21.40
2022-07-30T21:58:33.363Z,21.40
2022-07-30T22:01:04.083Z,21.40
2022-07-30T22:04:02.680Z,21.40
2022-07-30T22:06:30.863Z,21.50
2022-07-30T22:08:57.478Z,21.40
2022-07-30T22:11:24.096Z,21.30
2022-07-30T22:13:51.309Z,21.10
2022-07-30T22:16:21.660Z,21.00
2022-07-30T22:18:48.630Z,21.00
2022-07-30T22:21:15.560Z,21.10
2022-07-30T22:23:56.719Z,21.10
2022-07-30T22:26:26.842Z,21.10
2022-07-30T22:28:54.449Z,21.00
2022-07-30T22:31:21.219Z,21.00
2022-07-30T22:33:49.929Z,21.10
2022-07-30T22:36:18.951Z,21.10
2022-07-30T22:38:59.208Z,21.20
2022-07-30T22:41:26.263Z,21.10
2022-07-30T22:43:55.715Z,21.10
2022-07-30T22:46:30.119Z,21.10
2022-07-30T22:48:59.410Z,21.20
2022-07-30T22:52:02.859Z,21.10
2022-07-30T22:54:13.578Z,21.00
2022-07-30T22:56:41.521Z,20.80
2022-07-30T22:59:08.304Z,20.70
2022-07-30T23:01:34.907Z,20.60
2022-07-30T23:04:01.755Z,20.60
2022-07-30T23:06:28.465Z,20.60
2022-07-30T23:08:56.910Z,20.60
2022-07-30T23:11:23.787Z,20.50
2022-07-30T23:12:18.424Z,22.10
2022-07-30T23:13:53.723Z,20.50
2022-07-30T23:16:20.361Z,20.60
2022-07-30T23:18:47.326Z,20.60
2022-07-30T23:21:14.910Z,20.50
2022-07-30T23:23:41.594Z,20.50
2022-07-30T23:26:08.635Z,20.50
2022-07-30T23:28:36.691Z,20.40
2022-07-30T23:31:04.478Z,20.40
2022-07-30T23:33:32.192Z,20.40
2022-07-30T23:36:02.139Z,20.40
2022-07-30T23:38:28.865Z,20.30
2022-07-30T23:41:01.014Z,20.40
2022-07-30T23:43:28.132Z,20.50
2022-07-30T23:45:54.745Z,20.50
2022-07-30T23:48:21.648Z,20.40
2022-07-30T23:50:48.647Z,20.40
2022-07-30T23:53:15.360Z,20.30
2022-07-30T23:55:45.090Z,20.20
2022-07-30T23:58:11.828Z,20.30
